Time;durP1;ratioP1;P1;durP2;ratioP2;P2;SDS_P1;SDS_P2;PMS_P1;PMS_P2;Temp;Humidity;BMP_temperature;BMP_pressure;BME280_temperature;BME280_humidity;BME280_pressure;Samples;Min_cycle;Max_cycle;Signal;HPM_P1;HPM_P2
2021/12/14 00:01:47;;;;;;;0.20;0.20;;;8.80;99.90;8.70;102481.00;;;;5050971;28;20557;-80
2021/12/14 00:04:27;;;;;;;0.50;0.50;;;8.80;99.90;9.00;102509.00;;;;5034566;28;20672;-79
2021/12/14 00:07:03;;;;;;;0.63;0.63;;;8.80;99.90;9.10;102497.00;;;;5034358;28;20192;-79
2021/12/14 00:09:41;;;;;;;0.30;0.30;;;9.00;99.90;9.00;102521.00;;;;5034026;28;20175;-79
2021/12/14 00:12:44;;;;;;;0.30;0.30;;;9.00;99.90;8.80;102521.00;;;;5034753;28;20550;-78
2021/12/14 00:15:19;;;;;;;0.30;0.30;;;8.80;99.90;8.60;102525.00;;;;5034415;28;20179;-79
2021/12/14 00:18:10;;;;;;;0.20;0.20;;;8.80;99.90;8.50;102513.00;;;;5034050;28;20180;-80
2021/12/14 00:21:01;;;;;;;0.40;0.40;;;8.70;99.90;8.60;102499.00;;;;5035005;28;20657;-81
2021/12/14 00:26:35;;;;;;;0.30;0.30;;;8.70;99.90;8.50;102501.00;;;;5034269;28;20196;-80
2021/12/14 00:29:18;;;;;;;0.20;0.20;;;8.70;99.90;8.70;102502.00;;;;5034172;28;20159;-81
2021/12/14 00:31:52;;;;;;;1.67;1.03;;;8.70;99.90;8.60;102537.00;;;;5033663;28;20667;-81
2021/12/14 00:34:37;;;;;;;1.23;1.13;;;8.80;99.90;8.90;102547.00;;;;5035105;28;20656;-81
2021/12/14 00:37:53;;;;;;;0.30;0.30;;;8.80;99.90;9.00;102576.00;;;;5034280;28;20175;-82
2021/12/14 00:40:41;;;;;;;0.30;0.30;;;8.80;99.90;9.10;102571.00;;;;5065714;28;20651;-80
2021/12/14 00:43:26;;;;;;;0.30;0.30;;;9.00;99.90;9.40;102579.00;;;;5034322;28;20720;-85
2021/12/14 00:46:03;;;;;;;0.30;0.30;;;9.00;99.90;9.10;102564.00;;;;5033884;28;20167;-81
2021/12/14 00:48:38;;;;;;;0.30;0.30;;;9.10;99.90;8.90;102538.00;;;;5034651;28;20196;-80
2021/12/14 00:51:08;;;;;;;1.53;1.43;;;9.00;99.90;8.80;102572.00;;;;5033038;28;20647;-82
2021/12/14 00:53:41;;;;;;;0.30;0.30;;;8.90;99.90;9.10;102533.00;;;;5033778;28;20179;-81
2021/12/14 00:56:12;;;;;;;0.83;0.83;;;8.90;99.90;9.00;102514.00;;;;5032765;28;20183;-82
2021/12/14 00:58:48;;;;;;;0.30;0.30;;;9.00;99.90;8.90;102538.00;;;;5034696;28;20188;-80
2021/12/14 01:02:03;;;;;;;0.60;0.60;;;9.00;99.90;9.20;102530.00;;;;5032774;28;20190;-82
2021/12/14 01:04:48;;;;;;;0.40;0.40;;;9.00;99.90;9.10;102548.00;;;;5033119;28;20188;-82
2021/12/14 01:07:24;;;;;;;0.30;0.30;;;9.10;99.90;9.00;102481.00;;;;5033311;28;20179;-83
2021/12/14 01:10:00;;;;;;;0.30;0.30;;;9.00;99.90;9.40;102537.00;;;;5016739;28;20182;-81
2021/12/14 01:12:53;;;;;;;0.30;0.30;;;9.10;99.90;9.10;102528.00;;;;5016843;28;20264;-79
2021/12/14 01:16:14;;;;;;;0.30;0.30;;;9.00;99.90;9.60;102550.00;;;;5019258;28;20728;-79
2021/12/14 01:19:02;;;;;;;0.30;0.30;;;9.10;99.90;9.80;102537.00;;;;5033076;28;20271;-80
2021/12/14 01:22:00;;;;;;;0.63;0.63;;;9.30;99.90;10.00;102548.00;;;;5032840;28;20205;-80
2021/12/14 01:27:28;;;;;;;1.13;1.03;;;9.40;99.90;9.10;102534.00;;;;5013419;28;20193;-80
2021/12/14 01:30:06;;;;;;;0.30;0.30;;;9.30;99.90;9.30;102528.00;;;;5013218;28;20640;-80
2021/12/14 01:32:46;;;;;;;0.83;0.77;;;9.20;99.90;8.60;102535.00;;;;5013112;28;20363;-80
2021/12/14 01:35:30;;;;;;;0.93;0.93;;;9.00;99.90;8.90;102550.00;;;;5013311;28;20180;-80
2021/12/14 01:41:23;;;;;;;0.63;0.63;;;9.00;99.90;8.60;102499.00;;;;5013056;28;20192;-82
2021/12/14 01:44:04;;;;;;;0.40;0.40;;;8.80;99.90;8.60;102529.00;;;;5013113;28;20206;-81
2021/12/14 01:46:52;;;;;;;0.30;0.30;;;8.80;99.90;8.60;102521.00;;;;5013022;28;20171;-82
2021/12/14 01:49:34;;;;;;;0.47;0.47;;;8.80;99.90;8.50;102479.00;;;;5012502;28;20554;-85
2021/12/14 01:52:13;;;;;;;1.07;0.97;;;8.70;99.90;8.40;102524.00;;;;5012869;28;20211;-85
2021/12/14 01:55:01;;;;;;;0.87;0.87;;;8.60;99.90;8.30;102527.00;;;;5012987;28;20283;-86
2021/12/14 01:57:41;;;;;;;0.80;0.80;;;8.60;99.90;8.40;102507.00;;;;5012954;28;20175;-84
2021/12/14 02:00:15;;;;;;;0.30;0.30;;;8.60;99.90;8.60;102512.00;;;;5013175;28;20186;-84
2021/12/14 02:02:44;;;;;;;0.20;0.20;;;8.60;99.90;8.60;102528.00;;;;5012588;28;20185;-86
2021/12/14 02:05:26;;;;;;;0.40;0.40;;;8.60;99.90;8.30;102531.00;;;;5012622;28;20214;-84
2021/12/14 02:07:56;;;;;;;0.30;0.30;;;8.60;99.90;8.50;102534.00;;;;5012266;28;20183;-84
2021/12/14 02:10:41;;;;;;;0.40;0.40;;;8.60;99.90;8.30;102511.00;;;;5012366;28;20647;-84
2021/12/14 02:13:14;;;;;;;0.50;0.50;;;8.60;99.90;8.30;102500.00;;;;5012707;28;20195;-84
2021/12/14 02:15:44;;;;;;;0.30;0.30;;;8.50;99.90;8.40;102519.00;;;;5012377;28;20629;-83
2021/12/14 02:18:24;;;;;;;1.43;1.33;;;8.60;99.90;8.50;102467.00;;;;5012141;28;20237;-84
2021/12/14 02:21:03;;;;;;;0.20;0.20;;;8.60;99.90;8.30;102511.00;;;;5012439;28;20604;-80
2021/12/14 02:23:36;;;;;;;0.30;0.30;;;8.50;99.90;8.40;102458.00;;;;5013647;28;20179;-77
2021/12/14 02:26:16;;;;;;;0.40;0.40;;;8.50;99.90;8.40;102499.00;;;;5012776;28;20171;-78
2021/12/14 02:29:02;;;;;;;0.30;0.30;;;8.50;99.90;8.40;102509.00;;;;5012409;28;20167;-77
2021/12/14 02:31:42;;;;;;;0.30;0.30;;;8.60;99.90;8.60;102517.00;;;;5011785;28;20211;-77
2021/12/14 02:34:28;;;;;;;1.27;0.57;;;8.70;99.90;8.50;102492.00;;;;5012409;28;20636;-77
2021/12/14 02:36:57;;;;;;;0.30;0.30;;;8.60;99.90;8.50;102519.00;;;;5012298;28;20175;-83
2021/12/14 02:42:21;;;;;;;0.30;0.30;;;8.70;99.90;8.50;102517.00;;;;5012396;28;20322;-88
2021/12/14 02:45:02;;;;;;;0.53;0.53;;;8.60;99.90;8.20;102501.00;;;;5012638;28;20181;-86
2021/12/14 02:47:34;;;;;;;0.83;0.83;;;8.50;99.90;8.20;102513.00;;;;5011859;28;20250;-87
2021/12/14 02:50:12;;;;;;;0.30;0.30;;;8.50;99.90;8.20;102370.00;;;;5012335;28;20629;-87
2021/12/14 02:52:45;;;;;;;0.20;0.20;;;8.40;99.90;8.40;102462.00;;;;5012065;28;20203;-87
2021/12/14 02:55:30;;;;;;;0.23;0.23;;;8.40;99.90;8.30;102477.00;;;;5012257;28;20290;-87
2021/12/14 02:58:05;;;;;;;0.30;0.30;;;8.50;99.90;8.40;102513.00;;;;5011977;28;20271;-87
2021/12/14 03:01:02;;;;;;;0.30;0.30;;;8.50;99.90;8.20;102513.00;;;;5011715;28;20341;-87
2021/12/14 03:03:44;;;;;;;2.50;0.63;;;8.40;99.90;8.10;102517.00;;;;5011924;28;20180;-87
2021/12/14 03:06:25;;;;;;;0.30;0.30;;;8.40;99.90;8.30;102507.00;;;;5013841;28;20184;-87
2021/12/14 03:09:16;;;;;;;0.33;0.33;;;8.40;99.90;8.20;102467.00;;;;4996751;28;20183;-87
2021/12/14 03:11:51;;;;;;;0.33;0.33;;;8.40;99.90;8.30;102482.00;;;;4997581;28;20302;-87
2021/12/14 03:14:29;;;;;;;1.53;0.70;;;8.40;99.90;8.40;102476.00;;;;5028344;28;20184;-88
2021/12/14 03:17:06;;;;;;;0.87;0.87;;;8.50;99.90;8.60;102492.00;;;;5013314;28;20278;-88
2021/12/14 03:19:40;;;;;;;1.10;1.10;;;8.60;99.90;8.10;102436.00;;;;5014703;28;20254;-88
2021/12/14 03:22:47;;;;;;;0.40;0.40;;;8.50;99.90;8.70;102478.00;;;;4998119;28;20192;-85
2021/12/14 03:25:27;;;;;;;0.30;0.30;;;8.60;99.90;8.70;102445.00;;;;5013859;28;20553;-87
2021/12/14 03:27:58;;;;;;;0.20;0.20;;;8.70;99.90;8.70;102483.00;;;;5016080;28;20267;-88
2021/12/14 03:30:51;;;;;;;0.57;0.57;;;8.70;99.90;8.70;102471.00;;;;5015090;28;20177;-87
2021/12/14 03:33:33;;;;;;;3.50;2.30;;;8.70;99.90;8.30;102462.00;;;;5015510;28;20209;-90
2021/12/14 03:36:39;;;;;;;0.70;0.70;;;8.60;99.90;8.30;102457.00;;;;5015516;28;20185;-90
2021/12/14 03:39:22;;;;;;;4.10;1.77;;;8.50;99.90;8.70;102403.00;;;;5015352;28;20191;-90
2021/12/14 03:42:15;;;;;;;0.50;0.50;;;8.60;99.90;8.80;102446.00;;;;5031729;28;20192;-90
2021/12/14 03:45:23;;;;;;;0.63;0.63;;;8.80;99.90;8.20;102419.00;;;;5031391;28;20184;-90
2021/12/14 03:48:01;;;;;;;0.87;0.53;;;8.50;99.90;8.10;102468.00;;;;5015867;28;20315;-90
2021/12/14 03:50:42;;;;;;;0.70;0.70;;;8.40;99.90;8.00;102478.00;;;;5015047;28;20267;-86
2021/12/14 03:53:21;;;;;;;0.30;0.30;;;8.30;99.90;8.00;102484.00;;;;5014818;28;20215;-83
2021/12/14 03:56:10;;;;;;;0.30;0.30;;;8.30;99.90;8.80;102492.00;;;;4998998;28;20199;-83
2021/12/14 03:58:50;;;;;;;2.13;2.03;;;8.50;99.90;8.50;102497.00;;;;5015439;28;20675;-83
2021/12/14 04:01:47;;;;;;;0.50;0.50;;;8.60;99.90;8.80;102451.00;;;;4998618;28;20188;-83
2021/12/14 04:04:33;;;;;;;0.30;0.30;;;8.70;99.90;8.60;102493.00;;;;5014608;28;20238;-83
2021/12/14 04:07:07;;;;;;;0.20;0.20;;;8.70;99.90;8.70;102455.00;;;;5014622;28;20175;-84
2021/12/14 04:09:47;;;;;;;1.03;1.03;;;8.60;99.90;8.60;102482.00;;;;5014345;28;20195;-84
2021/12/14 04:12:27;;;;;;;0.30;0.30;;;8.70;99.90;8.50;102483.00;;;;5015015;28;20671;-84
2021/12/14 04:15:00;;;;;;;0.30;0.30;;;8.60;99.90;8.70;102502.00;;;;5015004;28;20190;-84
2021/12/14 04:17:38;;;;;;;0.33;0.33;;;8.60;99.90;8.90;102403.00;;;;5015966;28;20264;-84
2021/12/14 04:20:38;;;;;;;0.30;0.30;;;8.70;99.90;8.60;102500.00;;;;5014780;28;20172;-84
2021/12/14 04:23:35;;;;;;;0.83;0.83;;;8.60;99.90;8.80;102479.00;;;;5014181;28;20213;-83
2021/12/14 04:26:14;;;;;;;6.90;3.90;;;8.80;99.90;8.20;102501.00;;;;5014643;28;20192;-83
2021/12/14 04:29:12;;;;;;;0.20;0.20;;;8.50;99.90;8.50;102505.00;;;;5014293;28;20164;-84
2021/12/14 04:31:56;;;;;;;0.30;0.30;;;8.50;99.90;8.80;102479.00;;;;5014694;28;20219;-83
2021/12/14 04:34:27;;;;;;;1.97;1.77;;;8.70;99.90;8.40;102478.00;;;;5014222;28;20185;-83
2021/12/14 04:37:06;;;;;;;0.30;0.30;;;8.70;99.90;8.50;102496.00;;;;5014187;28;20223;-82
2021/12/14 04:39:49;;;;;;;0.50;0.50;;;8.60;99.90;8.60;102474.00;;;;5014177;28;20173;-84
2021/12/14 04:54:19;;;;;;;0.83;0.83;;;8.70;99.90;8.90;102462.00;;;;5013655;28;20617;-86
2021/12/14 04:57:03;;;;;;;0.77;0.60;;;8.70;99.90;8.80;102472.00;;;;5013945;28;20186;-89
2021/12/14 04:59:43;;;;;;;0.40;0.40;;;8.80;99.90;9.10;102484.00;;;;4996862;28;20196;-87
2021/12/14 05:02:29;;;;;;;0.70;0.70;;;8.90;99.90;8.50;102467.00;;;;5012690;28;20176;-87
2021/12/14 05:05:15;;;;;;;0.30;0.30;;;8.70;99.90;8.50;102474.00;;;;5013146;28;20195;-88
2021/12/14 05:11:12;;;;;;;0.20;0.20;;;8.50;99.90;8.60;102481.00;;;;5013392;28;20710;-89
2021/12/14 05:14:09;;;;;;;0.30;0.30;;;8.60;99.90;9.00;102483.00;;;;5013409;28;20183;-89
2021/12/14 05:16:42;;;;;;;0.50;0.50;;;8.70;99.90;8.70;102499.00;;;;5012716;28;20561;-89
2021/12/14 05:19:17;;;;;;;0.50;0.50;;;8.90;99.90;8.20;102472.00;;;;5013343;28;20195;-86
2021/12/14 05:21:54;;;;;;;0.30;0.30;;;8.60;99.90;8.60;102493.00;;;;5013422;28;20647;-84
2021/12/14 05:24:29;;;;;;;0.50;0.50;;;8.60;99.90;9.20;102503.00;;;;5013219;28;20211;-85
2021/12/14 05:27:11;;;;;;;1.37;1.33;;;8.80;99.90;9.30;102506.00;;;;5013222;28;20350;-86
2021/12/14 05:29:44;;;;;;;1.47;1.37;;;9.00;99.90;9.10;102471.00;;;;5013236;28;20256;-87
2021/12/14 05:32:24;;;;;;;2.63;2.50;;;9.00;99.90;9.10;102475.00;;;;5011922;28;20212;-86
2021/12/14 05:35:05;;;;;;;0.40;0.40;;;8.90;99.90;9.00;102460.00;;;;5013010;28;20183;-86
2021/12/14 05:37:48;;;;;;;0.50;0.50;;;8.90;99.90;9.00;102492.00;;;;5014069;28;20692;-92
2021/12/14 05:43:39;;;;;;;0.30;0.30;;;9.10;99.90;9.00;102499.00;;;;5013309;28;20185;-89
2021/12/14 05:46:23;;;;;;;1.70;1.60;;;8.90;99.90;8.30;102495.00;;;;4997383;28;20194;-88
2021/12/14 05:49:08;;;;;;;0.30;0.30;;;8.70;99.90;8.50;102508.00;;;;5013465;28;20184;-86
2021/12/14 05:51:45;;;;;;;0.30;0.30;;;8.50;99.90;8.30;102495.00;;;;5013193;28;20215;-91
2021/12/14 05:54:36;;;;;;;3.33;3.03;;;8.50;99.90;8.40;102466.00;;;;5012724;28;20206;-89
2021/12/14 05:57:16;;;;;;;1.57;1.03;;;8.50;99.90;8.40;102357.00;;;;5013484;28;20190;-89
2021/12/14 05:59:50;;;;;;;0.60;0.60;;;8.50;99.90;9.20;102511.00;;;;4996591;28;20211;-88
2021/12/14 06:02:20;;;;;;;0.30;0.30;;;8.80;99.90;8.40;102472.00;;;;5012691;28;20174;-88
2021/12/14 06:05:03;;;;;;;0.63;0.63;;;8.60;99.90;8.30;102497.00;;;;5013961;28;20278;-88
2021/12/14 06:07:36;;;;;;;0.37;0.37;;;8.50;99.90;8.30;102472.00;;;;5013605;28;20180;-89
2021/12/14 06:10:26;;;;;;;3.30;1.67;;;8.50;99.90;8.40;102516.00;;;;5012036;28;20207;-88
2021/12/14 06:13:00;;;;;;;0.30;0.30;;;8.60;99.90;9.00;102508.00;;;;5012350;28;20211;-85
2021/12/14 06:15:28;;;;;;;2.70;2.60;;;8.70;99.90;8.80;102476.00;;;;5013659;28;20186;-86
2021/12/14 06:17:55;;;;;;;3.67;3.47;;;8.70;99.90;9.30;102503.00;;;;5012347;28;20181;-87
2021/12/14 06:20:33;;;;;;;2.20;2.10;;;8.90;99.90;8.30;102511.00;;;;5012329;28;20191;-87
2021/12/14 06:23:06;;;;;;;0.40;0.40;;;8.70;99.90;8.60;102504.00;;;;5012466;28;20195;-87
2021/12/14 06:25:42;;;;;;;0.47;0.47;;;8.60;99.90;8.80;102493.00;;;;5012470;28;20202;-87
2021/12/14 06:28:44;;;;;;;0.40;0.40;;;8.80;99.90;9.40;102521.00;;;;5012624;28;20167;-90
2021/12/14 06:31:10;;;;;;;0.33;0.33;;;8.90;99.90;9.20;102517.00;;;;5010032;28;20314;-88
2021/12/14 06:33:43;;;;;;;1.77;1.67;;;9.00;99.90;8.80;102506.00;;;;5008709;28;20297;-88
2021/12/14 06:37:03;;;;;;;0.57;0.50;;;9.00;99.90;8.80;102524.00;;;;4993068;28;20286;-88
2021/12/14 06:40:08;;;;;;;0.90;0.90;;;8.80;99.90;8.50;102505.00;;;;5003827;28;20198;-88
2021/12/14 06:42:46;;;;;;;0.40;0.40;;;8.60;99.90;8.90;102524.00;;;;5028808;28;20644;-87
2021/12/14 06:45:34;;;;;;;0.40;0.40;;;8.70;99.90;9.10;102513.00;;;;5012589;28;20202;-88
2021/12/14 06:48:43;;;;;;;0.70;0.70;;;8.90;99.90;8.60;102527.00;;;;5012313;28;20172;-86
2021/12/14 06:51:21;;;;;;;0.30;0.30;;;8.90;99.90;9.00;102526.00;;;;5011718;28;20200;-86
2021/12/14 06:53:55;;;;;;;2.07;1.97;;;8.80;99.90;8.30;102541.00;;;;5013470;28;20612;-85
2021/12/14 06:56:36;;;;;;;2.07;1.77;;;8.70;99.90;8.70;102527.00;;;;5006711;28;20216;-83
2021/12/14 06:59:20;;;;;;;6.80;5.03;;;8.70;99.90;8.40;102540.00;;;;4996386;28;20176;-84
2021/12/14 07:02:02;;;;;;;4.80;4.50;;;8.60;99.90;8.50;102555.00;;;;4996730;28;20267;-85
2021/12/14 07:04:42;;;;;;;0.30;0.30;;;8.50;99.90;8.50;102541.00;;;;4996762;28;20192;-85
2021/12/14 07:07:24;;;;;;;3.87;3.57;;;8.60;99.90;8.60;102533.00;;;;4996012;28;20213;-85
2021/12/14 07:10:06;;;;;;;12.73;8.93;;;8.70;99.90;8.90;102529.00;;;;4996458;28;20183;-85
2021/12/14 07:12:37;;;;;;;0.63;0.63;;;8.80;99.90;8.30;102546.00;;;;4979875;28;20299;-81
2021/12/14 07:15:36;;;;;;;0.30;0.30;;;8.60;99.90;8.60;102508.00;;;;4996294;28;20188;-87
2021/12/14 07:18:11;;;;;;;0.80;0.80;;;8.60;99.90;8.30;102549.00;;;;4980790;28;20191;-82
2021/12/14 07:20:49;;;;;;;3.07;1.70;;;8.60;99.90;8.10;102520.00;;;;4999612;28;20725;-85
2021/12/14 07:23:36;;;;;;;2.03;1.93;;;8.40;99.90;8.20;102469.00;;;;4999211;28;20194;-90
2021/12/14 07:26:19;;;;;;;14.23;5.40;;;8.40;99.90;8.30;102513.00;;;;4994730;28;20215;-84
2021/12/14 07:29:02;;;;;;;0.83;0.83;;;8.40;99.90;8.50;102571.00;;;;5015731;28;20184;-82
2021/12/14 07:31:44;;;;;;;3.97;3.70;;;8.50;99.90;8.70;102582.00;;;;5031946;28;20207;-91
2021/12/14 07:34:25;;;;;;;0.30;0.30;;;8.70;99.90;8.70;102546.00;;;;5016294;28;20242;-89
2021/12/14 07:36:57;;;;;;;4.77;3.97;;;8.70;99.90;8.90;102552.00;;;;4998699;28;20270;-88
2021/12/14 07:39:24;;;;;;;0.60;0.60;;;8.70;99.90;8.10;102568.00;;;;5015185;28;20609;-88
2021/12/14 07:41:59;;;;;;;0.40;0.40;;;8.60;99.90;8.10;102594.00;;;;5014611;28;20232;-88
2021/12/14 07:44:34;;;;;;;0.40;0.40;;;8.40;99.90;8.10;102594.00;;;;5015019;28;20187;-87
2021/12/14 07:47:22;;;;;;;0.30;0.30;;;8.40;99.90;8.60;102606.00;;;;5015267;28;20636;-88
2021/12/14 07:49:55;;;;;;;0.30;0.30;;;8.50;99.90;8.80;102603.00;;;;4998801;28;20241;-89
2021/12/14 07:52:36;;;;;;;1.83;1.50;;;8.70;99.90;9.00;102575.00;;;;5014533;28;20211;-88
2021/12/14 07:55:18;;;;;;;0.47;0.47;;;8.90;99.90;9.40;102583.00;;;;4998501;28;20191;-90
2021/12/14 07:57:49;;;;;;;0.50;0.50;;;9.00;99.90;9.00;102608.00;;;;4999228;28;20191;-84
2021/12/14 08:00:24;;;;;;;1.37;1.37;;;9.00;99.90;8.60;102561.00;;;;5014920;28;20171;-83
2021/12/14 08:03:01;;;;;;;0.40;0.40;;;8.90;99.90;8.80;102586.00;;;;5014903;28;20195;-83
2021/12/14 08:05:46;;;;;;;1.23;1.23;;;8.80;99.90;9.20;102612.00;;;;5014135;28;20184;-83
2021/12/14 08:08:33;;;;;;;0.40;0.40;;;9.00;99.90;9.70;102601.00;;;;5014670;28;20724;-83
2021/12/14 08:14:28;;;;;;;0.40;0.40;;;9.50;99.90;9.70;102565.00;;;;5029830;28;20193;-83
2021/12/14 08:17:14;;;;;;;1.43;1.33;;;9.60;99.90;9.40;102608.00;;;;5030618;28;20216;-83
2021/12/14 08:19:43;;;;;;;2.97;2.00;;;9.20;99.90;9.20;102564.00;;;;5014339;28;20556;-83
2021/12/14 08:22:33;;;;;;;1.07;1.07;;;9.40;99.90;9.80;102551.00;;;;5030869;28;20274;-83
2021/12/14 08:25:11;;;;;;;1.33;1.27;;;9.40;99.90;9.10;102581.00;;;;5014173;28;20319;-82
2021/12/14 08:27:40;;;;;;;0.40;0.40;;;9.30;99.90;9.00;102603.00;;;;5015231;28;20189;-85
2021/12/14 08:30:18;;;;;;;0.60;0.60;;;9.10;99.90;9.00;102600.00;;;;4998262;28;20548;-88
2021/12/14 08:32:55;;;;;;;0.83;0.83;;;9.00;99.90;8.80;102600.00;;;;5014227;28;20239;-88
2021/12/14 08:35:35;;;;;;;0.30;0.30;;;9.00;99.90;9.50;102615.00;;;;5013718;28;20174;-84
2021/12/14 08:38:07;;;;;;;0.73;0.70;;;9.10;99.90;9.40;102619.00;;;;5013979;28;20210;-84
2021/12/14 08:40:50;;;;;;;2.10;1.90;;;9.20;99.90;9.30;102619.00;;;;4997747;28;20183;-84
2021/12/14 08:43:31;;;;;;;3.73;1.67;;;9.10;99.90;8.80;102622.00;;;;5013998;28;20192;-83
2021/12/14 08:46:14;;;;;;;0.30;0.30;;;9.00;99.90;9.10;102616.00;;;;5013953;28;20580;-83
2021/12/14 08:48:50;;;;;;;1.27;1.27;;;9.00;99.90;9.30;102586.00;;;;5014040;28;20195;-84
2021/12/14 08:51:25;;;;;;;2.73;2.20;;;9.10;99.90;8.80;102634.00;;;;5013114;28;20167;-84
2021/12/14 08:54:04;;;;;;;0.83;0.83;;;9.10;99.90;9.10;102592.00;;;;5012809;28;20184;-84
2021/12/14 08:56:41;;;;;;;0.60;0.60;;;9.10;99.90;9.30;102619.00;;;;5012803;28;20176;-83
2021/12/14 08:59:16;;;;;;;1.50;1.50;;;9.10;99.90;9.70;102621.00;;;;5013846;28;20547;-84
2021/12/14 09:01:51;;;;;;;2.37;1.73;;;9.40;99.90;9.30;102619.00;;;;5013696;28;20187;-84
2021/12/14 09:04:31;;;;;;;0.87;0.87;;;9.30;99.90;9.20;102612.00;;;;5013339;28;20188;-83
2021/12/14 09:07:17;;;;;;;4.00;0.60;;;9.30;99.90;9.30;102623.00;;;;5013542;28;20207;-83
2021/12/14 09:09:47;;;;;;;0.50;0.50;;;9.30;99.90;10.00;102626.00;;;;5013066;28;20186;-84
2021/12/14 09:12:18;;;;;;;0.30;0.30;;;9.60;99.90;9.60;102628.00;;;;5013347;28;20209;-84
2021/12/14 09:14:49;;;;;;;0.60;0.60;;;9.60;99.90;9.70;102622.00;;;;5014340;28;20267;-84
2021/12/14 09:17:22;;;;;;;1.53;1.47;;;9.50;99.90;9.60;102639.00;;;;4995733;28;20194;-84
2021/12/14 09:19:59;;;;;;;0.30;0.30;;;9.70;99.90;9.90;102648.00;;;;5013306;28;20654;-84
2021/12/14 09:22:38;;;;;;;0.83;0.83;;;9.70;99.90;9.20;102635.00;;;;5013203;28;20184;-83
2021/12/14 09:25:18;;;;;;;1.60;1.43;;;9.40;99.90;8.70;102632.00;;;;4997347;28;20191;-83
2021/12/14 09:27:47;;;;;;;2.70;2.50;;;9.10;99.90;9.10;102604.00;;;;5014660;28;20180;-83
2021/12/14 09:30:22;;;;;;;4.83;4.20;;;9.20;99.90;9.50;102659.00;;;;5013527;28;20187;-83
2021/12/14 09:33:03;;;;;;;0.40;0.40;;;9.50;99.90;9.40;102648.00;;;;5012926;28;20227;-83
2021/12/14 09:35:36;;;;;;;0.30;0.30;;;9.50;99.90;9.60;102673.00;;;;5013004;28;20266;-83
2021/12/14 09:38:12;;;;;;;1.20;1.20;;;9.60;99.90;9.80;102665.00;;;;5013096;28;20180;-83
2021/12/14 09:41:09;;;;;;;0.60;0.60;;;9.70;99.90;9.60;102664.00;;;;5013346;28;20705;-83
2021/12/14 09:43:47;;;;;;;0.33;0.33;;;9.60;99.90;9.30;102658.00;;;;4996429;28;20210;-83
2021/12/14 09:46:19;;;;;;;1.67;1.60;;;9.50;99.90;9.80;102646.00;;;;5013110;28;20218;-84
2021/12/14 09:48:56;;;;;;;0.50;0.50;;;9.60;99.90;9.40;102664.00;;;;4996795;28;20205;-83
2021/12/14 09:51:37;;;;;;;0.50;0.50;;;9.60;99.90;9.40;102676.00;;;;4996530;28;20190;-83
2021/12/14 09:54:15;;;;;;;1.50;1.43;;;9.50;99.90;9.40;102658.00;;;;4996746;28;20615;-83
2021/12/14 09:57:02;;;;;;;2.20;1.70;;;9.50;99.90;9.20;102659.00;;;;5012880;28;20167;-84
2021/12/14 09:59:34;;;;;;;1.17;1.17;;;9.40;99.90;9.20;102661.00;;;;4997275;28;20269;-84
2021/12/14 10:02:20;;;;;;;0.30;0.30;;;9.50;99.90;9.40;102652.00;;;;5013761;28;20184;-84
2021/12/14 10:05:00;;;;;;;0.30;0.30;;;9.40;99.90;9.60;102633.00;;;;5012807;28;20226;-84
2021/12/14 10:07:32;;;;;;;0.40;0.40;;;9.50;99.90;9.80;102621.00;;;;5012410;28;20196;-84
2021/12/14 10:10:04;;;;;;;0.40;0.40;;;9.70;99.90;10.30;102669.00;;;;4996241;28;20213;-84
2021/12/14 10:12:49;;;;;;;0.97;0.67;;;9.90;99.90;10.20;102659.00;;;;5012788;28;20204;-81
2021/12/14 10:15:36;;;;;;;0.60;0.60;;;10.00;99.90;10.10;102610.00;;;;5012334;28;20188;-81
2021/12/14 10:18:12;;;;;;;0.70;0.70;;;10.10;99.90;9.50;102647.00;;;;5012322;28;20228;-82
2021/12/14 10:33:16;;;;;;;1.03;1.03;;;9.40;99.90;9.00;102662.00;;;;5094240;27;1294683;-83
2021/12/14 10:35:53;;;;;;;0.30;0.30;;;9.40;99.90;9.60;102654.00;;;;5113320;28;20532;-83
2021/12/14 10:38:35;;;;;;;1.90;1.80;;;9.60;99.90;10.10;102658.00;;;;5113453;28;20181;-83
2021/12/14 10:44:04;;;;;;;2.67;2.57;;;9.80;99.90;9.70;102608.00;;;;5130494;28;20202;-83
2021/12/14 10:46:45;;;;;;;2.40;2.23;;;9.80;99.90;9.70;102656.00;;;;5130377;28;20202;-83
2021/12/14 10:49:17;;;;;;;0.30;0.30;;;9.90;99.90;10.60;102623.00;;;;5113518;28;20176;-83
2021/12/14 10:51:50;;;;;;;0.40;0.40;;;10.10;99.90;10.10;102652.00;;;;5130021;28;20199;-83
2021/12/14 10:54:23;;;;;;;0.80;0.80;;;10.10;99.90;9.80;102616.00;;;;5129980;28;20181;-83
2021/12/14 10:57:03;;;;;;;5.27;4.87;;;10.00;99.90;10.30;102641.00;;;;5129953;28;20212;-83
2021/12/14 10:59:38;;;;;;;1.43;1.43;;;10.10;99.90;9.90;102650.00;;;;5129602;28;20208;-83
2021/12/14 11:02:11;;;;;;;12.30;7.40;;;10.00;99.90;9.60;102630.00;;;;5112746;28;20183;-82
2021/12/14 11:04:53;;;;;;;0.20;0.20;;;9.90;99.90;9.60;102642.00;;;;5130422;28;20235;-83
2021/12/14 11:07:40;;;;;;;1.00;1.00;;;9.80;99.90;10.10;102603.00;;;;5129825;28;20198;-83
2021/12/14 11:10:23;;;;;;;3.73;3.37;;;9.80;99.90;9.90;102642.00;;;;5101222;28;20191;-84
2021/12/14 11:12:58;;;;;;;0.70;0.70;;;10.00;99.90;10.70;102633.00;;;;5108844;28;20264;-74
2021/12/14 11:15:45;;;;;;;1.40;1.10;;;10.40;99.90;11.40;102644.00;;;;5100158;28;20189;-73
2021/12/14 11:18:20;;;;;;;0.60;0.60;;;10.70;99.90;11.50;102632.00;;;;5108985;28;20181;-74
2021/12/14 11:20:54;;;;;;;0.77;0.77;;;10.90;99.90;11.50;102634.00;;;;5109503;28;20177;-74
2021/12/14 11:23:35;;;;;;;0.80;0.80;;;11.10;99.90;11.00;102626.00;;;;5108993;28;20183;-73
2021/12/14 11:26:21;;;;;;;2.97;1.53;;;10.90;99.90;10.70;102620.00;;;;5092007;28;20188;-63
2021/12/14 11:28:54;;;;;;;3.23;2.43;;;10.80;99.90;10.40;102624.00;;;;5108543;28;20177;-73
2021/12/14 11:31:23;;;;;;;0.70;0.70;;;10.70;99.90;10.00;102646.00;;;;5108718;28;20196;-73
2021/12/14 11:34:04;;;;;;;0.70;0.70;;;10.40;99.90;10.60;102610.00;;;;5108011;28;20563;-73
2021/12/14 11:37:00;;;;;;;0.87;0.87;;;10.40;99.90;10.80;102643.00;;;;5099792;28;20181;-72
2021/12/14 11:39:35;;;;;;;0.70;0.70;;;10.60;99.90;10.00;102631.00;;;;5088612;28;20621;-72
2021/12/14 11:42:18;;;;;;;0.83;0.83;;;10.30;99.90;10.80;102635.00;;;;5088189;28;20185;-72
2021/12/14 11:44:55;;;;;;;0.67;0.67;;;10.50;99.90;10.90;102638.00;;;;5074336;28;20185;-72
2021/12/14 11:50:19;;;;;;;3.33;2.80;;;10.80;99.90;10.40;102645.00;;;;5078624;28;20199;-72
2021/12/14 11:53:05;;;;;;;5.37;5.10;;;10.80;99.90;11.20;102640.00;;;;5077427;28;20250;-72
2021/12/14 11:55:54;;;;;;;1.93;1.50;;;10.80;99.90;10.90;102638.00;;;;5074916;28;20582;-79
2021/12/14 11:58:38;;;;;;;1.33;1.33;;;10.70;99.90;10.70;102640.00;;;;5074087;28;20197;-72
2021/12/14 12:01:46;;;;;;;7.80;6.77;;;10.50;99.90;10.10;102633.00;;;;5084885;28;20189;-72
2021/12/14 12:04:34;;;;;;;0.60;0.60;;;10.50;99.90;10.30;102599.00;;;;5057703;28;20217;-71
2021/12/14 12:09:56;;;;;;;0.93;0.93;;;10.60;99.90;11.20;102625.00;;;;5074309;28;20198;-72
2021/12/14 12:12:37;;;;;;;1.83;1.13;;;10.90;99.90;10.50;102569.00;;;;5073877;28;20216;-72
2021/12/14 12:15:18;;;;;;;2.10;1.90;;;10.70;99.90;10.20;102625.00;;;;5057397;28;20178;-71
2021/12/14 12:17:51;;;;;;;7.93;3.30;;;10.50;99.90;10.00;102618.00;;;;5074702;28;20308;-71
2021/12/14 12:20:34;;;;;;;13.70;7.43;;;10.30;99.90;10.00;102630.00;;;;5074424;28;20172;-71
2021/12/14 12:23:08;;;;;;;0.70;0.70;;;10.30;99.90;10.20;102640.00;;;;5073833;28;20189;-72
2021/12/14 12:26:00;;;;;;;8.17;4.37;;;10.30;99.90;10.10;102642.00;;;;5073833;28;20266;-72
2021/12/14 12:28:34;;;;;;;1.00;1.00;;;10.30;99.90;9.80;102612.00;;;;5057681;28;20658;-71
2021/12/14 12:31:11;;;;;;;2.00;1.63;;;10.20;99.90;10.00;102586.00;;;;5073172;28;20633;-71
2021/12/14 12:33:53;;;;;;;11.13;6.77;;;10.20;99.90;9.90;102623.00;;;;5073740;28;20659;-71
2021/12/14 12:36:43;;;;;;;2.33;2.17;;;10.20;99.90;10.60;102631.00;;;;5074392;28;20179;-71
2021/12/14 12:39:18;;;;;;;5.30;1.63;;;10.40;99.90;10.40;102634.00;;;;5072246;28;20180;-71
2021/12/14 12:42:00;;;;;;;0.67;0.67;;;10.50;99.90;10.50;102625.00;;;;5073236;28;20649;-72
2021/12/14 12:44:38;;;;;;;3.80;2.60;;;10.50;99.90;10.30;102590.00;;;;5056807;28;20183;-67
2021/12/14 12:47:22;;;;;;;5.37;2.13;;;10.60;99.90;10.20;102630.00;;;;5074235;28;20660;-72
2021/12/14 12:49:59;;;;;;;5.13;4.67;;;10.50;99.90;10.20;102625.00;;;;5057212;28;20272;-72
2021/12/14 12:52:34;;;;;;;7.37;4.67;;;10.50;99.90;10.00;102626.00;;;;5056696;28;20197;-72
2021/12/14 12:55:35;;;;;;;0.67;0.67;;;10.40;99.90;9.90;102623.00;;;;5071759;28;20172;-83